createdAt,value
2018-02-14T00:01:04.869Z,97657.24
2018-02-14T00:03:32.531Z,97655.55
2018-02-14T00:08:27.174Z,97649.84
2018-02-14T00:10:54.832Z,97657.22
2018-02-14T00:13:22.522Z,97645.87
2018-02-14T00:15:50.184Z,97655.30
2018-02-14T00:18:17.865Z,97654.36
2018-02-14T00:20:45.527Z,97654.53
2018-02-14T00:23:13.381Z,97658.55
2018-02-14T00:25:41.054Z,97657.47
2018-02-14T00:28:08.711Z,97654.90
2018-02-14T00:30:36.406Z,97651.04
2018-02-14T00:33:04.084Z,97648.44
2018-02-14T00:35:31.789Z,97653.89
2018-02-14T00:37:59.467Z,97655.55
2018-02-14T00:40:27.161Z,97659.40
2018-02-14T00:42:54.851Z,97658.67
2018-02-14T00:45:22.946Z,97666.45
2018-02-14T00:47:50.615Z,97672.16
2018-02-14T00:50:18.295Z,97668.95
2018-02-14T00:52:45.982Z,97671.72
2018-02-14T00:55:13.655Z,97671.72
2018-02-14T00:57:41.475Z,97678.58
2018-02-14T01:00:09.141Z,97678.54
2018-02-14T01:02:36.821Z,97674.28
2018-02-14T01:05:04.554Z,97686.43
2018-02-14T01:07:32.231Z,97682.15
2018-02-14T01:09:59.935Z,97677.77
2018-02-14T01:12:27.595Z,97694.26
2018-02-14T01:14:55.280Z,97682.79
2018-02-14T01:17:23.015Z,97689.33
2018-02-14T01:19:56.175Z,97690.49
2018-02-14T01:22:23.860Z,97687.16
2018-02-14T01:24:51.523Z,97687.84
2018-02-14T01:27:19.251Z,97689.09
2018-02-14T01:29:46.910Z,97691.50
2018-02-14T01:32:14.582Z,97694.39
2018-02-14T01:34:42.283Z,97697.35
2018-02-14T01:37:09.947Z,97698.52
2018-02-14T01:39:38.629Z,97694.30
2018-02-14T01:42:06.303Z,97701.68
2018-02-14T01:44:34.024Z,97702.53
2018-02-14T01:47:01.694Z,97703.56
2018-02-14T01:49:29.445Z,97704.72
2018-02-14T01:51:57.134Z,97704.56
2018-02-14T01:54:24.800Z,97712.79
2018-02-14T01:56:52.486Z,97713.34
2018-02-14T01:59:20.156Z,97717.80
2018-02-14T02:01:48.051Z,97723.70
2018-02-14T02:04:15.722Z,97715.16
2018-02-14T02:06:43.386Z,97722.45
2018-02-14T02:09:11.099Z,97723.36
2018-02-14T02:11:38.759Z,97718.88
2018-02-14T02:14:06.440Z,97722.84
2018-02-14T02:16:34.112Z,97727.67
2018-02-14T02:19:02.113Z,97723.55
2018-02-14T02:21:29.783Z,97728.55
2018-02-14T02:23:57.448Z,97731.95
2018-02-14T02:26:25.138Z,97734.59
2018-02-14T02:28:52.805Z,97735.86
2018-02-14T02:31:20.522Z,97737.45
2018-02-14T02:33:48.195Z,97737.50
2018-02-14T02:36:15.900Z,97736.64
2018-02-14T02:38:43.564Z,97740.31
2018-02-14T02:41:11.240Z,97738.16
2018-02-14T02:43:38.956Z,97744.77
2018-02-14T02:46:06.628Z,97736.42
2018-02-14T02:48:34.323Z,97745.91
2018-02-14T02:51:01.996Z,97746.11
2018-02-14T02:53:30.085Z,97746.27
2018-02-14T02:55:57.749Z,97747.36
2018-02-14T02:58:25.419Z,97750.04
2018-02-14T03:00:53.102Z,97748.70
2018-02-14T03:03:20.787Z,97749.08
2018-02-14T03:05:48.475Z,97745.53
2018-02-14T03:08:16.135Z,97751.71
2018-02-14T03:10:44.236Z,97754.75
2018-02-14T03:13:11.919Z,97754.27
2018-02-14T03:15:39.584Z,97760.22
2018-02-14T03:18:07.271Z,97755.38
2018-02-14T03:20:34.935Z,97761.87
2018-02-14T03:23:02.632Z,97768.78
2018-02-14T03:25:30.297Z,97768.29
2018-02-14T03:27:58.274Z,97759.81
2018-02-14T03:30:25.947Z,97762.55
2018-02-14T03:32:53.606Z,97760.47
2018-02-14T03:35:21.299Z,97768.32
2018-02-14T03:37:48.989Z,97767.00
2018-02-14T03:40:16.677Z,97766.51
2018-02-14T03:42:44.359Z,97773.27
2018-02-14T03:45:12.525Z,97770.53
2018-02-14T03:47:40.194Z,97774.19
2018-02-14T03:50:07.859Z,97780.02
2018-02-14T03:52:35.547Z,97773.92
2018-02-14T03:55:03.208Z,97786.00
2018-02-14T03:57:30.899Z,97788.13
2018-02-14T03:59:58.572Z,97787.23
2018-02-14T04:02:26.466Z,97787.69
2018-02-14T04:04:54.132Z,97792.61
2018-02-14T04:07:21.792Z,97790.56
2018-02-14T04:09:49.480Z,97796.48
2018-02-14T04:12:17.143Z,97800.72
2018-02-14T04:14:44.823Z,97804.70
2018-02-14T04:17:12.487Z,97813.82
2018-02-14T04:19:40.177Z,97812.16
2018-02-14T04:22:07.854Z,97815.58
2018-02-14T04:24:35.518Z,97823.05
2018-02-14T04:27:03.206Z,97818.48
2018-02-14T04:29:30.871Z,97829.72
2018-02-14T04:31:58.567Z,97832.64
2018-02-14T04:34:26.232Z,97835.23
2018-02-14T04:36:53.894Z,97834.09
2018-02-14T04:39:21.592Z,97839.69
2018-02-14T04:41:49.260Z,97845.31
2018-02-14T04:44:16.944Z,97837.95
2018-02-14T04:46:45.368Z,97840.95
2018-02-14T04:49:13.071Z,97846.09
2018-02-14T04:51:40.746Z,97851.37
2018-02-14T04:54:08.413Z,97854.20
2018-02-14T04:56:36.101Z,97860.69
2018-02-14T04:59:03.767Z,97866.73
2018-02-14T05:01:31.463Z,97865.46
2018-02-14T05:03:59.154Z,97866.49
2018-02-14T05:06:27.012Z,97876.49
2018-02-14T05:08:54.680Z,97872.19
2018-02-14T05:11:22.357Z,97879.99
2018-02-14T05:13:50.043Z,97881.25
2018-02-14T05:16:17.774Z,97877.94
2018-02-14T05:18:45.479Z,97879.43
2018-02-14T05:21:13.148Z,97891.72
2018-02-14T05:23:41.125Z,97888.33
2018-02-14T05:26:08.828Z,97895.61
2018-02-14T05:28:36.490Z,97894.53
2018-02-14T05:31:04.179Z,97896.31
2018-02-14T05:33:31.860Z,97900.67
2018-02-14T05:35:59.560Z,97893.59
2018-02-14T05:38:27.227Z,97895.95
2018-02-14T05:40:55.121Z,97898.19
2018-02-14T05:43:22.785Z,97907.33
2018-02-14T05:45:50.447Z,97908.66
2018-02-14T05:48:18.134Z,97911.74
2018-02-14T05:50:45.811Z,97913.77
2018-02-14T05:53:13.517Z,97913.59
2018-02-14T05:55:41.200Z,97918.06
2018-02-14T05:58:09.086Z,97912.90
2018-02-14T06:00:36.752Z,97922.51
2018-02-14T06:03:04.415Z,97930.42
2018-02-14T06:05:32.096Z,97928.23
2018-02-14T06:07:59.759Z,97935.37
2018-02-14T06:10:27.448Z,97938.58
2018-02-14T06:12:55.150Z,97942.61
2018-02-14T06:15:22.867Z,97940.77
2018-02-14T06:17:50.539Z,97950.66
2018-02-14T06:20:18.203Z,97946.70
2018-02-14T06:22:45.899Z,97951.63
2018-02-14T06:25:13.565Z,97955.12
2018-02-14T06:27:41.260Z,97957.30
2018-02-14T06:30:08.931Z,97957.81
2018-02-14T06:32:37.032Z,97956.55
2018-02-14T06:35:04.708Z,97967.25
2018-02-14T06:37:32.370Z,97967.30
2018-02-14T06:40:00.082Z,97975.14
2018-02-14T06:42:27.767Z,97985.84
2018-02-14T06:44:55.456Z,97984.45
2018-02-14T06:47:23.119Z,97989.19
2018-02-14T06:49:50.968Z,97993.11
2018-02-14T06:52:18.653Z,97994.88
2018-02-14T06:54:46.326Z,97996.16
2018-02-14T06:57:14.021Z,97999.36
2018-02-14T06:59:41.684Z,98003.05
2018-02-14T07:02:09.385Z,98003.48
2018-02-14T07:04:37.077Z,98014.78
2018-02-14T07:07:05.119Z,98015.80
2018-02-14T07:09:32.792Z,98013.58
2018-02-14T07:12:00.553Z,98021.29
2018-02-14T07:14:28.252Z,98022.09
2018-02-14T07:16:55.925Z,98020.11
2018-02-14T07:19:23.622Z,98026.19
2018-02-14T07:21:51.284Z,98027.13
2018-02-14T07:24:19.264Z,98034.16
2018-02-14T07:26:46.933Z,98031.57
2018-02-14T07:29:14.592Z,98028.83
2018-02-14T07:34:09.231Z,98038.38
2018-02-14T07:36:37.367Z,98047.18
2018-02-14T07:39:05.055Z,98046.48
2018-02-14T07:41:32.711Z,98046.12
2018-02-14T07:44:00.575Z,98058.48
2018-02-14T07:46:28.259Z,98053.16
2018-02-14T07:48:55.947Z,98058.28
2018-02-14T07:51:23.635Z,98058.67
2018-02-14T07:53:51.624Z,98060.67
2018-02-14T07:56:19.299Z,98066.02
2018-02-14T07:58:46.968Z,98065.22
2018-02-14T08:01:14.671Z,98060.56
2018-02-14T08:03:42.340Z,98065.59
2018-02-14T08:06:10.029Z,98065.27
2018-02-14T08:08:37.808Z,98064.50
2018-02-14T08:11:05.665Z,98073.89
2018-02-14T08:13:33.363Z,98067.06
2018-02-14T08:16:01.047Z,98067.71
2018-02-14T08:18:28.771Z,98066.55
2018-02-14T08:20:56.466Z,98065.09
2018-02-14T08:23:24.167Z,98069.16
2018-02-14T08:25:51.860Z,98069.98
2018-02-14T08:28:19.819Z,98072.92
2018-02-14T08:30:47.495Z,98083.45
2018-02-14T08:33:15.196Z,98077.12
2018-02-14T08:35:43.113Z,98084.76
2018-02-14T08:38:10.816Z,98082.63
2018-02-14T08:40:38.539Z,98080.47
2018-02-14T08:43:06.207Z,98080.73
2018-02-14T08:45:33.971Z,98086.83
2018-02-14T08:48:01.663Z,98084.84
2018-02-14T08:50:30.695Z,98078.44
2018-02-14T08:52:58.705Z,98084.73
2018-02-14T08:55:26.765Z,98092.73
2018-02-14T08:57:54.803Z,98095.47
2018-02-14T09:00:22.679Z,98102.03
2018-02-14T09:02:50.556Z,98104.52
2018-02-14T09:05:18.221Z,98113.19
2018-02-14T09:07:46.122Z,98103.22
2018-02-14T09:10:14.210Z,98104.77
2018-02-14T09:12:42.118Z,98109.61
2018-02-14T09:15:09.843Z,98108.30
2018-02-14T09:17:37.502Z,98111.13
2018-02-14T09:20:05.195Z,98116.72
2018-02-14T09:22:32.862Z,98112.50
2018-02-14T09:25:00.527Z,98110.57
2018-02-14T09:27:28.343Z,98112.66
2018-02-14T09:29:56.014Z,98110.20
2018-02-14T09:32:23.699Z,98113.78
2018-02-14T09:34:51.380Z,98114.38
2018-02-14T09:37:19.479Z,98115.66
2018-02-14T09:39:47.145Z,98112.77
2018-02-14T09:42:15.124Z,98114.39
2018-02-14T09:44:43.200Z,98115.73
2018-02-14T09:47:10.882Z,98111.56
2018-02-14T09:49:38.582Z,98115.00
2018-02-14T09:52:06.370Z,98107.94
2018-02-14T09:54:34.542Z,98116.31
2018-02-14T09:57:02.216Z,98113.55
2018-02-14T09:59:29.976Z,98117.29
2018-02-14T10:01:57.663Z,98119.71
2018-02-14T10:04:25.327Z,98119.50
2018-02-14T10:06:53.035Z,98123.88
2018-02-14T10:09:20.739Z,98113.93
2018-02-14T10:11:48.822Z,98116.84
2018-02-14T10:14:16.783Z,98114.52
2018-02-14T10:16:44.443Z,98120.72
2018-02-14T10:19:12.210Z,98116.50
2018-02-14T10:21:39.897Z,98122.02
2018-02-14T10:24:07.608Z,98121.86
2018-02-14T10:26:35.282Z,98121.84
2018-02-14T10:29:03.155Z,98120.75
2018-02-14T10:31:30.834Z,98129.79
2018-02-14T10:33:58.538Z,98126.68
2018-02-14T10:36:26.631Z,98122.44
2018-02-14T10:38:54.315Z,98124.82
2018-02-14T10:41:22.305Z,98126.79
2018-02-14T10:43:50.225Z,98126.30
2018-02-14T10:46:18.107Z,98123.77
2018-02-14T10:48:45.771Z,98126.02
2018-02-14T10:51:13.441Z,98123.67
2018-02-14T10:53:41.144Z,98126.78
2018-02-14T10:56:08.816Z,98121.97
2018-02-14T10:58:36.526Z,98127.21
2018-02-14T11:01:04.207Z,98129.16
2018-02-14T11:03:37.357Z,98123.26
2018-02-14T11:06:10.774Z,98122.87
2018-02-14T11:08:38.471Z,98115.33
2018-02-14T11:11:06.435Z,98112.62
2018-02-14T11:13:34.576Z,98111.88
2018-02-14T11:16:02.250Z,98113.22
2018-02-14T11:18:30.056Z,98108.93
2018-02-14T11:20:57.748Z,98116.12
2018-02-14T11:23:25.471Z,98111.67
2018-02-14T11:25:53.173Z,98111.84
2018-02-14T11:28:20.836Z,98110.06
2018-02-14T11:30:48.511Z,98116.55
2018-02-14T11:33:16.203Z,98112.52
2018-02-14T11:35:43.875Z,98113.91
2018-02-14T11:38:11.735Z,98107.66
2018-02-14T11:40:39.406Z,98109.11
2018-02-14T11:43:07.403Z,98111.93
2018-02-14T11:45:35.530Z,98114.80
2018-02-14T11:48:03.185Z,98112.28
2018-02-14T11:50:30.793Z,98114.74
2018-02-14T11:52:58.476Z,98109.83
2018-02-14T11:55:26.382Z,98109.52
2018-02-14T11:57:54.077Z,98111.13
2018-02-14T12:00:21.751Z,98121.41
2018-02-14T12:02:49.475Z,98112.67
2018-02-14T12:05:17.139Z,98118.40
2018-02-14T12:07:44.833Z,98114.50
2018-02-14T12:10:12.421Z,98103.42
2018-02-14T12:12:40.645Z,98105.27
2018-02-14T12:15:08.616Z,98108.58
2018-02-14T12:17:36.202Z,98108.41
2018-02-14T12:20:03.824Z,98109.55
2018-02-14T12:22:31.416Z,98114.91
2018-02-14T12:24:59.099Z,98115.73
2018-02-14T12:27:26.716Z,98111.81
2018-02-14T12:29:54.362Z,98114.65
2018-02-14T12:32:21.957Z,98107.70
2018-02-14T12:34:49.558Z,98109.45
2018-02-14T12:37:17.170Z,98098.27
2018-02-14T12:39:47.465Z,98102.89
2018-02-14T12:42:15.366Z,98093.92
2018-02-14T12:44:43.263Z,98092.63
2018-02-14T12:47:11.068Z,98091.80
2018-02-14T12:49:38.653Z,98104.55
2018-02-14T12:52:06.282Z,98096.67
2018-02-14T12:54:33.883Z,98097.42
2018-02-14T12:57:01.491Z,98089.27
2018-02-14T12:59:29.185Z,98085.62
2018-02-14T13:01:56.787Z,98084.93
2018-02-14T13:04:24.423Z,98077.16
2018-02-14T13:06:52.053Z,98083.58
2018-02-14T13:09:19.946Z,98074.86
2018-02-14T13:11:47.907Z,98081.83
2018-02-14T13:14:15.893Z,98075.71
2018-02-14T13:16:43.831Z,98073.30
2018-02-14T13:19:11.585Z,98073.42
2018-02-14T13:21:41.104Z,98072.97
2018-02-14T13:24:08.697Z,98059.84
2018-02-14T13:26:36.446Z,98070.34
2018-02-14T13:29:04.057Z,98070.01
2018-02-14T13:31:31.653Z,98073.13
2018-02-14T13:33:59.260Z,98076.47
2018-02-14T13:36:26.843Z,98076.33
2018-02-14T13:38:54.866Z,98079.74
2018-02-14T13:41:22.513Z,98068.19
2018-02-14T13:43:50.403Z,98075.44
2018-02-14T13:46:18.265Z,98070.25
2018-02-14T13:48:45.859Z,98072.62
2018-02-14T13:51:13.462Z,98075.71
2018-02-14T13:53:41.059Z,98073.04
2018-02-14T13:56:08.792Z,98080.53
2018-02-14T13:58:36.374Z,98076.73
2018-02-14T14:01:04.096Z,98081.41
2018-02-14T14:03:31.707Z,98076.79
2018-02-14T14:05:59.308Z,98077.19
2018-02-14T14:08:26.981Z,98072.53
2018-02-14T14:10:54.591Z,98075.72
2018-02-14T14:13:22.459Z,98079.59
2018-02-14T14:15:50.419Z,98076.20
2018-02-14T14:18:18.014Z,98072.98
2018-02-14T14:20:45.632Z,98073.23
2018-02-14T14:23:14.200Z,98073.44
2018-02-14T14:25:41.851Z,98073.43
2018-02-14T14:28:09.473Z,98076.10
2018-02-14T14:30:37.115Z,98071.71
2018-02-14T14:33:04.736Z,98074.66
2018-02-14T14:35:32.331Z,98073.64
2018-02-14T14:38:00.422Z,98080.32
2018-02-14T14:40:28.068Z,98082.45
2018-02-14T14:42:55.929Z,98084.16
2018-02-14T14:45:23.901Z,98084.31
2018-02-14T14:47:51.544Z,98093.16
2018-02-14T14:50:19.142Z,98090.17
2018-02-14T14:52:46.837Z,98093.80
2018-02-14T14:55:14.453Z,98101.00
2018-02-14T14:57:42.092Z,98097.61
2018-02-14T15:00:09.956Z,98109.67
2018-02-14T15:02:37.561Z,98115.20
2018-02-14T15:05:05.192Z,98110.27
2018-02-14T15:07:32.820Z,98110.05
2018-02-14T15:10:00.439Z,98115.36
2018-02-14T15:12:28.205Z,98103.71
2018-02-14T15:14:56.139Z,98115.77
2018-02-14T15:17:24.004Z,98116.31
2018-02-14T15:19:51.603Z,98120.22
2018-02-14T15:22:19.256Z,98120.34
2018-02-14T15:24:46.867Z,98120.70
2018-02-14T15:27:14.478Z,98134.50
2018-02-14T15:29:42.089Z,98132.86
2018-02-14T15:32:09.678Z,98131.48
2018-02-14T15:34:37.433Z,98143.27
2018-02-14T15:37:05.300Z,98139.05
2018-02-14T15:39:32.939Z,98141.89
2018-02-14T15:42:00.626Z,98141.48
2018-02-14T15:44:28.322Z,98140.19
2018-02-14T15:46:55.936Z,98140.48
2018-02-14T15:49:23.532Z,98141.22
2018-02-14T15:51:51.359Z,98144.23
2018-02-14T15:54:18.972Z,98144.77
2018-02-14T15:56:46.566Z,98143.73
2018-02-14T15:59:14.427Z,98145.59
2018-02-14T16:01:42.016Z,98146.32
2018-02-14T16:04:09.668Z,98142.58
2018-02-14T16:06:37.634Z,98144.27
2018-02-14T16:09:05.321Z,98152.95
2018-02-14T16:11:32.904Z,98155.44
2018-02-14T16:14:00.583Z,98158.06
2018-02-14T16:16:28.360Z,98159.27
2018-02-14T16:18:56.033Z,98158.91
2018-02-14T16:21:24.028Z,98165.59
2018-02-14T16:23:52.134Z,98160.28
2018-02-14T16:26:19.968Z,98165.88
2018-02-14T16:28:47.639Z,98161.62
2018-02-14T16:31:15.312Z,98168.97
2018-02-14T16:33:43.023Z,98164.70
2018-02-14T16:36:10.698Z,98170.09
2018-02-14T16:38:38.383Z,98179.23
2018-02-14T16:41:06.047Z,98175.23
2018-02-14T16:43:33.935Z,98179.02
2018-02-14T16:46:01.941Z,98187.58
2018-02-14T16:48:29.972Z,98192.61
2018-02-14T16:50:57.727Z,98193.75
2018-02-14T16:53:25.393Z,98197.78
2018-02-14T16:55:53.350Z,98201.00
2018-02-14T16:58:21.250Z,98198.94
2018-02-14T17:00:49.487Z,98205.36
2018-02-14T17:03:17.374Z,98210.67
2018-02-14T17:05:46.339Z,98207.80
2018-02-14T17:08:14.561Z,98214.78
2018-02-14T17:10:42.435Z,98213.25
2018-02-14T17:13:10.289Z,98214.88
2018-02-14T17:15:38.380Z,98211.34
2018-02-14T17:18:06.740Z,98210.91
2018-02-14T17:20:35.999Z,98207.80
2018-02-14T17:23:05.504Z,98215.48
2018-02-14T17:25:33.626Z,98216.77
2018-02-14T17:28:01.593Z,98220.84
2018-02-14T17:30:29.303Z,98218.95
2018-02-14T17:32:56.997Z,98220.32
2018-02-14T17:35:24.960Z,98220.62
2018-02-14T17:37:52.632Z,98231.02
2018-02-14T17:40:20.306Z,98233.77
2018-02-14T17:42:48.001Z,98228.23
2018-02-14T17:45:15.668Z,98237.56
2018-02-14T17:47:43.364Z,98243.81
2018-02-14T17:50:11.027Z,98248.34
2018-02-14T17:52:39.003Z,98247.94
2018-02-14T17:55:06.677Z,98247.41
2018-02-14T17:57:34.449Z,98245.89
2018-02-14T18:00:02.155Z,98245.16
2018-02-14T18:02:29.822Z,98247.97
2018-02-14T18:04:57.527Z,98257.20
2018-02-14T18:07:25.284Z,98257.38
2018-02-14T18:09:53.259Z,98257.39
2018-02-14T18:12:20.932Z,98258.92
2018-02-14T18:14:48.643Z,98268.91
2018-02-14T18:17:16.336Z,98269.52
2018-02-14T18:19:44.011Z,98264.69
2018-02-14T18:22:11.709Z,98270.47
2018-02-14T18:24:39.439Z,98275.47
2018-02-14T18:27:07.149Z,98273.75
2018-02-14T18:29:34.814Z,98270.36
2018-02-14T18:32:02.495Z,98276.43
2018-02-14T18:34:30.190Z,98274.50
2018-02-14T18:36:57.854Z,98278.55
2018-02-14T18:39:25.539Z,98278.23
2018-02-14T18:41:53.216Z,98282.05
2018-02-14T18:44:20.907Z,98279.59
2018-02-14T18:46:48.585Z,98284.35
2018-02-14T18:49:16.267Z,98283.42
2018-02-14T18:51:44.036Z,98283.17
2018-02-14T18:54:11.855Z,98279.30
2018-02-14T18:56:39.792Z,98279.05
2018-02-14T18:59:07.450Z,98282.23
2018-02-14T19:01:35.112Z,98283.13
2018-02-14T19:04:02.801Z,98292.90
2018-02-14T19:06:30.468Z,98295.35
2018-02-14T19:08:58.157Z,98299.95
2018-02-14T19:11:25.820Z,98291.36
2018-02-14T19:13:53.968Z,98296.73
2018-02-14T19:16:21.636Z,98297.70
2018-02-14T19:18:49.342Z,98302.05
2018-02-14T19:21:17.054Z,98306.00
2018-02-14T19:23:44.722Z,98300.59
2018-02-14T19:26:12.435Z,98306.80
2018-02-14T19:28:40.097Z,98305.95
2018-02-14T19:31:07.944Z,98305.06
2018-02-14T19:33:35.608Z,98308.91
2018-02-14T19:36:03.284Z,98306.67
2018-02-14T19:38:30.963Z,98312.03
2018-02-14T19:40:58.714Z,98308.24
2018-02-14T19:43:27.819Z,98316.48
2018-02-14T19:45:55.513Z,98314.72
2018-02-14T19:48:23.422Z,98313.16
2018-02-14T19:50:51.084Z,98323.48
2018-02-14T19:53:18.759Z,98330.05
2018-02-14T19:55:46.522Z,98333.61
2018-02-14T19:58:14.180Z,98336.72
2018-02-14T20:00:41.867Z,98339.91
2018-02-14T20:03:09.535Z,98335.78
2018-02-14T20:05:37.364Z,98337.98
2018-02-14T20:08:05.084Z,98338.92
2018-02-14T20:10:32.747Z,98336.95
2018-02-14T20:13:00.463Z,98335.04
2018-02-14T20:15:28.124Z,98336.56
2018-02-14T20:17:55.815Z,98331.25
2018-02-14T20:20:23.505Z,98333.63
2018-02-14T20:22:51.519Z,98341.98
2018-02-14T20:25:19.185Z,98345.77
2018-02-14T20:27:46.848Z,98336.98
2018-02-14T20:30:14.532Z,98330.55
2018-02-14T20:32:42.279Z,98337.62
2018-02-14T20:35:09.964Z,98329.81
2018-02-14T20:37:37.754Z,98331.94
2018-02-14T20:40:05.565Z,98333.41
2018-02-14T20:42:33.236Z,98327.22
2018-02-14T20:45:00.903Z,98338.39
2018-02-14T20:47:28.672Z,98342.36
2018-02-14T20:49:56.343Z,98336.79
2018-02-14T20:52:24.029Z,98338.92
2018-02-14T20:54:51.691Z,98337.95
2018-02-14T20:57:19.803Z,98345.23
2018-02-14T20:59:47.465Z,98353.77
2018-02-14T21:02:15.147Z,98358.62
2018-02-14T21:04:42.833Z,98348.19
2018-02-14T21:07:10.496Z,98342.83
2018-02-14T21:09:38.180Z,98340.55
2018-02-14T21:12:05.843Z,98337.44
2018-02-14T21:14:33.540Z,98329.75
2018-02-14T21:17:01.197Z,98330.61
2018-02-14T21:19:28.867Z,98326.81
2018-02-14T21:21:56.561Z,98320.77
2018-02-14T21:24:24.228Z,98313.34
2018-02-14T21:26:51.923Z,98314.78
2018-02-14T21:29:19.586Z,98316.45
2018-02-14T21:31:47.687Z,98315.16
2018-02-14T21:34:15.351Z,98306.68
2018-02-14T21:36:43.022Z,98309.45
2018-02-14T21:39:10.736Z,98306.70
2018-02-14T21:41:38.488Z,98300.45
2018-02-14T21:44:06.512Z,98289.42
2018-02-14T21:46:34.172Z,98287.41
2018-02-14T21:49:01.841Z,98285.63
2018-02-14T21:51:29.533Z,98293.11
2018-02-14T21:53:57.195Z,98295.54
2018-02-14T21:56:24.882Z,98291.91
2018-02-14T21:58:52.543Z,98293.00
2018-02-14T22:01:20.498Z,98287.64
2018-02-14T22:03:48.159Z,98283.40
2018-02-14T22:06:15.889Z,98279.33
2018-02-14T22:08:43.573Z,98278.20
2018-02-14T22:11:11.245Z,98285.47
2018-02-14T22:13:38.937Z,98282.01
2018-02-14T22:16:06.602Z,98280.97
2018-02-14T22:18:34.323Z,98288.62
2018-02-14T22:21:01.995Z,98290.87
2018-02-14T22:23:29.674Z,98285.87
2018-02-14T22:25:57.362Z,98285.97
2018-02-14T22:28:25.028Z,98293.95
2018-02-14T22:30:52.715Z,98299.29
2018-02-14T22:33:20.479Z,98290.34
2018-02-14T22:35:48.184Z,98298.17
2018-02-14T22:38:15.844Z,98292.42
2018-02-14T22:40:43.525Z,98282.80
2018-02-14T22:43:11.204Z,98280.45
2018-02-14T22:45:38.863Z,98283.30
2018-02-14T22:48:06.551Z,98291.27
2018-02-14T22:50:34.227Z,98302.52
2018-02-14T22:53:02.077Z,98307.70
2018-02-14T22:55:29.732Z,98312.66
2018-02-14T22:57:57.391Z,98308.80
2018-02-14T23:00:25.114Z,98302.34
2018-02-14T23:02:52.798Z,98308.00
2018-02-14T23:05:20.495Z,98299.59
2018-02-14T23:07:48.191Z,98298.94
2018-02-14T23:10:16.320Z,98292.89
2018-02-14T23:12:43.982Z,98290.64
2018-02-14T23:15:11.643Z,98293.28
2018-02-14T23:17:39.339Z,98285.16
2018-02-14T23:20:06.999Z,98289.48
2018-02-14T23:22:34.782Z,98287.23
2018-02-14T23:25:02.447Z,98282.95
2018-02-14T23:27:30.479Z,98278.48
2018-02-14T23:29:58.214Z,98278.55
2018-02-14T23:32:25.867Z,98274.30
2018-02-14T23:34:53.546Z,98267.16
2018-02-14T23:37:21.218Z,98259.33
2018-02-14T23:39:48.907Z,98258.81
2018-02-14T23:42:16.572Z,98257.16
2018-02-14T23:44:44.517Z,98250.70
2018-02-14T23:47:12.176Z,98250.34
2018-02-14T23:49:39.843Z,98259.80
2018-02-14T23:52:07.528Z,98259.17
2018-02-14T23:54:35.191Z,98249.20
2018-02-14T23:57:02.872Z,98247.63
2018-02-14T23:59:30.564Z,98246.36
